createdAt,value
2022-11-21T00:00:44.534Z,19.73
2022-11-21T00:03:11.279Z,20.40
2022-11-21T00:05:42.380Z,19.20
2022-11-21T00:08:15.117Z,22.93
2022-11-21T00:10:42.088Z,17.43
2022-11-21T00:13:13.589Z,19.67
2022-11-21T00:15:40.298Z,18.90
2022-11-21T00:18:06.903Z,17.67
2022-11-21T00:20:35.869Z,18.97
2022-11-21T00:23:11.781Z,19.20
2022-11-21T00:25:38.587Z,17.87
2022-11-21T00:28:05.742Z,17.70
2022-11-21T00:30:32.247Z,17.30
2022-11-21T00:32:59.166Z,17.17
2022-11-21T00:35:25.713Z,16.10
2022-11-21T00:37:52.179Z,16.37
2022-11-21T00:40:22.346Z,16.27
2022-11-21T00:42:49.841Z,16.40
2022-11-21T00:45:21.177Z,16.30
2022-11-21T00:47:50.534Z,16.23
2022-11-21T00:50:17.143Z,16.57
2022-11-21T00:52:43.648Z,17.00
2022-11-21T00:55:10.314Z,17.20
2022-11-21T00:57:36.857Z,16.27
2022-11-21T01:00:04.808Z,15.33
2022-11-21T01:02:32.485Z,17.37
2022-11-21T01:04:59.011Z,16.13
2022-11-21T01:07:25.544Z,15.60
2022-11-21T01:09:52.069Z,15.73
2022-11-21T01:12:18.967Z,16.50
2022-11-21T01:14:45.524Z,16.47
2022-11-21T01:17:11.981Z,16.00
2022-11-21T01:19:38.461Z,16.57
2022-11-21T01:22:04.919Z,14.73
2022-11-21T01:24:31.412Z,15.83
2022-11-21T01:26:58.146Z,14.10
2022-11-21T01:29:24.687Z,14.60
2022-11-21T01:31:51.159Z,16.47
2022-11-21T01:34:18.555Z,17.77
2022-11-21T01:36:45.710Z,15.80
2022-11-21T01:39:12.442Z,15.37
2022-11-21T01:41:44.189Z,13.93
2022-11-21T01:44:15.261Z,16.00
2022-11-21T01:46:41.766Z,14.77
2022-11-21T01:49:11.604Z,15.20
2022-11-21T01:55:37.754Z,13.37
2022-11-21T01:58:05.075Z,15.17
2022-11-21T02:00:37.051Z,14.90
2022-11-21T02:03:08.541Z,14.70
2022-11-21T02:05:36.972Z,15.97
2022-11-21T02:08:07.571Z,14.53
2022-11-21T02:10:34.848Z,14.60
2022-11-21T02:13:01.623Z,15.03
2022-11-21T02:15:29.244Z,14.53
2022-11-21T02:17:56.366Z,16.20
2022-11-21T02:20:24.390Z,15.10
2022-11-21T02:23:03.162Z,16.57
2022-11-21T02:25:31.457Z,16.60
2022-11-21T02:28:03.253Z,16.90
2022-11-21T02:30:31.726Z,15.83
2022-11-21T02:32:58.554Z,16.10
2022-11-21T02:35:25.086Z,16.07
2022-11-21T02:37:55.034Z,15.60
2022-11-21T02:40:25.552Z,17.30
2022-11-21T02:43:03.785Z,17.03
2022-11-21T02:45:41.524Z,16.70
2022-11-21T02:48:08.393Z,14.90
2022-11-21T02:50:36.980Z,16.37
2022-11-21T02:53:05.169Z,16.10
2022-11-21T02:55:31.801Z,16.73
2022-11-21T02:58:01.769Z,16.60
2022-11-21T03:00:31.052Z,17.50
2022-11-21T03:02:57.535Z,15.97
2022-11-21T03:05:24.044Z,18.20
2022-11-21T03:07:50.523Z,17.50
2022-11-21T03:10:17.431Z,17.60
2022-11-21T03:12:44.358Z,18.93
2022-11-21T03:15:13.642Z,18.20
2022-11-21T03:17:40.411Z,18.50
2022-11-21T03:20:08.238Z,16.90
2022-11-21T03:22:35.056Z,17.37
2022-11-21T03:25:01.686Z,19.13
2022-11-21T03:27:28.371Z,19.20
2022-11-21T03:29:54.872Z,18.03
2022-11-21T03:32:21.319Z,20.37
2022-11-21T03:34:47.806Z,18.60
2022-11-21T03:37:14.282Z,17.93
2022-11-21T03:39:40.746Z,18.60
2022-11-21T03:42:07.254Z,19.23
2022-11-21T03:44:33.694Z,20.20
2022-11-21T03:47:00.164Z,18.67
2022-11-21T03:49:26.615Z,20.13
2022-11-21T03:51:53.042Z,19.53
2022-11-21T03:54:19.528Z,18.90
2022-11-21T03:56:46.109Z,19.23
2022-11-21T03:59:12.634Z,19.50
2022-11-21T04:01:39.323Z,18.93
2022-11-21T04:04:05.958Z,18.27
2022-11-21T04:06:32.492Z,21.03
2022-11-21T04:08:58.961Z,20.77
2022-11-21T04:11:25.456Z,19.50
2022-11-21T04:13:52.550Z,20.00
2022-11-21T04:16:19.533Z,21.53
2022-11-21T04:18:46.021Z,19.90
2022-11-21T04:21:12.544Z,20.70
2022-11-21T04:23:38.973Z,19.90
2022-11-21T04:26:05.523Z,19.17
2022-11-21T04:28:32.029Z,22.43
2022-11-21T04:31:10.878Z,20.20
2022-11-21T04:33:41.180Z,20.17
2022-11-21T04:36:08.384Z,22.20
2022-11-21T04:38:35.112Z,22.50
2022-11-21T04:41:01.668Z,21.20
2022-11-21T04:43:28.122Z,20.80
2022-11-21T04:45:54.617Z,19.87
2022-11-21T04:48:21.158Z,22.13
2022-11-21T04:50:47.688Z,21.77
2022-11-21T04:53:14.276Z,19.93
2022-11-21T04:55:40.695Z,22.23
2022-11-21T04:58:07.457Z,21.47
2022-11-21T05:00:34.906Z,22.50
2022-11-21T05:03:05.782Z,21.50
2022-11-21T05:05:32.789Z,21.67
2022-11-21T05:07:59.357Z,20.60
2022-11-21T05:10:25.868Z,20.30
2022-11-21T05:13:18.279Z,21.97
2022-11-21T05:15:45.233Z,22.97
2022-11-21T05:18:11.830Z,21.30
2022-11-21T05:20:38.273Z,21.70
2022-11-21T05:23:04.826Z,30.30
2022-11-21T05:25:31.505Z,22.20
2022-11-21T05:27:57.974Z,23.73
2022-11-21T05:30:24.456Z,21.03
2022-11-21T05:32:51.051Z,21.60
2022-11-21T05:35:17.535Z,21.43
2022-11-21T05:37:44.184Z,20.80
2022-11-21T05:40:11.164Z,22.23
2022-11-21T05:43:01.079Z,20.20
2022-11-21T05:45:27.628Z,21.37
2022-11-21T05:47:54.098Z,21.47
2022-11-21T05:50:20.579Z,23.63
2022-11-21T05:52:47.139Z,21.13
2022-11-21T05:55:13.738Z,22.17
2022-11-21T05:57:40.335Z,21.90
2022-11-21T06:00:07.466Z,19.10
2022-11-21T06:02:52.732Z,21.23
2022-11-21T06:05:19.602Z,21.63
2022-11-21T06:07:46.211Z,22.47
2022-11-21T06:10:12.770Z,22.93
2022-11-21T06:12:39.255Z,21.60
2022-11-21T06:15:06.418Z,20.10
2022-11-21T06:17:32.931Z,20.93
2022-11-21T06:19:59.403Z,20.70
2022-11-21T06:22:25.875Z,24.73
2022-11-21T06:24:52.421Z,20.27
2022-11-21T06:27:19.204Z,19.50
2022-11-21T06:29:46.009Z,20.70
2022-11-21T06:32:12.603Z,21.43
2022-11-21T06:34:39.103Z,22.03
2022-11-21T06:37:05.884Z,23.80
2022-11-21T06:39:32.354Z,19.90
2022-11-21T06:41:58.969Z,19.07
2022-11-21T06:44:25.796Z,22.30
2022-11-21T06:46:52.421Z,18.60
2022-11-21T06:49:18.975Z,19.00
2022-11-21T06:51:45.446Z,19.53
2022-11-21T06:54:16.473Z,19.13
2022-11-21T06:56:43.924Z,19.30
2022-11-21T06:59:10.774Z,19.30
2022-11-21T07:01:37.423Z,19.97
2022-11-21T07:04:04.353Z,20.33
2022-11-21T07:06:30.834Z,21.60
2022-11-21T07:09:30.844Z,24.70
2022-11-21T07:11:43.915Z,21.70
2022-11-21T07:14:10.601Z,21.10
2022-11-21T07:16:37.285Z,25.27
2022-11-21T07:19:03.780Z,25.40
2022-11-21T07:21:30.349Z,25.37
2022-11-21T07:23:56.838Z,20.97
2022-11-21T07:26:23.339Z,24.80
2022-11-21T07:28:49.840Z,21.20
2022-11-21T07:31:16.522Z,22.93
2022-11-21T07:33:46.866Z,23.73
2022-11-21T07:36:13.842Z,21.87
2022-11-21T07:38:41.604Z,22.77
2022-11-21T07:41:08.909Z,22.70
2022-11-21T07:43:35.452Z,22.57
2022-11-21T07:46:02.042Z,22.03
2022-11-21T07:48:28.527Z,21.37
2022-11-21T07:50:54.955Z,20.27
2022-11-21T07:53:21.673Z,20.03
2022-11-21T07:55:48.277Z,20.90
2022-11-21T07:58:16.295Z,20.47
2022-11-21T08:00:43.100Z,20.33
2022-11-21T08:03:11.907Z,21.10
2022-11-21T08:05:42.616Z,21.70
2022-11-21T08:08:10.110Z,22.33
2022-11-21T08:10:44.613Z,23.70
2022-11-21T08:13:11.979Z,23.33
2022-11-21T08:15:39.087Z,22.90
2022-11-21T08:18:08.912Z,22.00
2022-11-21T08:20:35.797Z,23.47
2022-11-21T08:23:02.962Z,20.80
2022-11-21T08:25:29.434Z,20.17
2022-11-21T08:27:59.517Z,19.90
2022-11-21T08:30:26.535Z,20.10
2022-11-21T08:32:53.007Z,20.80
2022-11-21T08:35:19.612Z,19.33
2022-11-21T08:37:46.187Z,20.80
2022-11-21T08:40:12.699Z,21.27
2022-11-21T08:42:39.192Z,20.27
2022-11-21T08:45:06.189Z,19.20
2022-11-21T08:47:33.864Z,19.23
2022-11-21T08:50:04.346Z,19.43
2022-11-21T08:52:34.031Z,17.40
2022-11-21T08:55:00.495Z,18.63
2022-11-21T08:57:27.003Z,17.40
2022-11-21T08:59:53.550Z,18.23
2022-11-21T09:02:20.000Z,17.87
2022-11-21T09:04:46.476Z,17.70
2022-11-21T09:07:12.968Z,17.20
2022-11-21T09:09:39.485Z,19.33
2022-11-21T09:12:06.267Z,19.07
2022-11-21T09:14:51.340Z,17.67
2022-11-21T09:17:36.289Z,17.40
2022-11-21T09:20:03.278Z,18.20
2022-11-21T09:22:30.028Z,22.07
2022-11-21T09:24:56.476Z,19.90
2022-11-21T09:27:22.956Z,19.30
2022-11-21T09:29:53.852Z,17.20
2022-11-21T09:32:20.858Z,17.73
2022-11-21T09:34:47.316Z,17.03
2022-11-21T09:37:14.027Z,17.67
2022-11-21T09:39:40.568Z,17.60
2022-11-21T09:42:15.973Z,16.40
2022-11-21T09:45:04.270Z,18.60
2022-11-21T09:47:52.499Z,18.67
2022-11-21T09:50:26.185Z,16.33
2022-11-21T09:53:14.459Z,18.47
2022-11-21T09:55:50.975Z,19.63
2022-11-21T09:58:37.385Z,17.90
2022-11-21T10:01:04.156Z,19.70
2022-11-21T10:03:41.326Z,20.57
2022-11-21T10:06:26.069Z,18.63
2022-11-21T10:08:58.342Z,20.53
2022-11-21T10:12:11.264Z,20.70
2022-11-21T10:14:55.716Z,21.40
2022-11-21T10:17:54.207Z,18.37
2022-11-21T10:20:29.453Z,19.60
2022-11-21T10:23:20.737Z,24.27
2022-11-21T10:25:58.047Z,20.30
2022-11-21T10:28:37.939Z,18.97
2022-11-21T10:31:04.726Z,19.47
2022-11-21T10:33:33.458Z,18.93
2022-11-21T10:36:13.861Z,19.53
2022-11-21T10:38:43.363Z,18.00
2022-11-21T10:41:21.714Z,18.40
2022-11-21T10:44:47.264Z,17.70
2022-11-21T10:47:33.549Z,17.87
2022-11-21T10:50:09.104Z,17.47
2022-11-21T10:52:49.269Z,18.70
2022-11-21T10:55:16.852Z,19.40
2022-11-21T10:57:48.589Z,18.63
2022-11-21T11:00:22.501Z,20.73
2022-11-21T11:03:04.761Z,19.67
2022-11-21T11:05:36.289Z,19.17
2022-11-21T11:08:02.833Z,19.60
2022-11-21T11:10:29.991Z,20.10
2022-11-21T11:13:44.410Z,19.63
2022-11-21T11:16:25.475Z,18.77
2022-11-21T11:19:15.733Z,19.57
2022-11-21T11:21:44.396Z,21.10
2022-11-21T11:24:10.871Z,21.07
2022-11-21T11:26:48.106Z,20.97
2022-11-21T11:29:19.556Z,20.17
2022-11-21T11:32:01.355Z,21.93
2022-11-21T11:34:42.193Z,32.20
2022-11-21T11:37:31.269Z,21.07
2022-11-21T11:40:21.620Z,21.73
2022-11-21T11:43:29.617Z,20.80
2022-11-21T11:46:32.654Z,19.80
2022-11-21T11:49:20.350Z,18.00
2022-11-21T11:51:55.380Z,20.10
2022-11-21T11:54:26.830Z,19.47
2022-11-21T11:56:53.956Z,18.43
2022-11-21T11:59:51.214Z,18.17
2022-11-21T12:02:42.754Z,32.17
2022-11-21T12:05:14.670Z,43.80
2022-11-21T12:10:37.120Z,18.40
2022-11-21T12:13:11.443Z,18.30
2022-11-21T12:15:49.921Z,16.93
2022-11-21T12:18:20.601Z,17.10
2022-11-21T12:21:04.246Z,16.20
2022-11-21T12:23:30.670Z,15.83
2022-11-21T12:26:21.522Z,20.03
2022-11-21T12:29:16.964Z,16.97
2022-11-21T12:32:10.165Z,17.63
2022-11-21T12:35:04.788Z,16.67
2022-11-21T12:37:59.235Z,16.43
2022-11-21T12:40:34.830Z,22.20
2022-11-21T12:43:24.747Z,99.33
2022-11-21T12:45:55.272Z,19.43
2022-11-21T12:49:18.526Z,18.33
2022-11-21T12:52:15.727Z,19.83
2022-11-21T12:54:57.728Z,17.60
2022-11-21T12:57:32.960Z,22.87
2022-11-21T13:00:21.194Z,18.23
2022-11-21T13:03:03.843Z,18.93
2022-11-21T13:05:38.017Z,19.67
2022-11-21T13:08:13.758Z,18.00
2022-11-21T13:10:46.977Z,16.63
2022-11-21T13:13:30.442Z,17.30
2022-11-21T13:16:06.366Z,19.17
2022-11-21T13:18:41.921Z,18.43
2022-11-21T13:21:44.485Z,19.70
2022-11-21T13:24:11.599Z,19.50
2022-11-21T13:26:38.011Z,19.93
2022-11-21T13:29:08.100Z,20.60
2022-11-21T13:31:34.976Z,21.33
2022-11-21T13:34:03.006Z,20.63
2022-11-21T13:36:29.491Z,19.20
2022-11-21T13:38:59.876Z,19.83
2022-11-21T13:41:53.917Z,19.17
2022-11-21T13:44:32.556Z,19.70
2022-11-21T13:47:05.019Z,20.90
2022-11-21T13:49:36.743Z,19.23
2022-11-21T13:52:11.651Z,20.43
2022-11-21T13:55:06.112Z,18.97
2022-11-21T13:58:03.048Z,19.60
2022-11-21T14:00:38.046Z,21.23
2022-11-21T14:03:10.607Z,21.37
2022-11-21T14:05:59.312Z,22.50
2022-11-21T14:08:27.563Z,21.03
2022-11-21T14:10:56.128Z,21.53
2022-11-21T14:13:30.031Z,20.50
2022-11-21T14:16:30.932Z,19.70
2022-11-21T14:18:58.214Z,19.53
2022-11-21T14:21:29.777Z,20.17
2022-11-21T14:23:58.407Z,20.47
2022-11-21T14:26:25.578Z,19.07
2022-11-21T14:28:52.232Z,21.13
2022-11-21T14:31:19.195Z,18.17
2022-11-21T14:33:47.430Z,17.93
2022-11-21T14:36:16.580Z,18.80
2022-11-21T14:39:29.011Z,20.00
2022-11-21T14:41:48.578Z,22.40
2022-11-21T14:44:17.564Z,26.20
2022-11-21T14:46:44.775Z,20.43
2022-11-21T14:49:17.348Z,24.40
2022-11-21T14:52:02.626Z,17.67
2022-11-21T14:55:06.316Z,17.37
2022-11-21T14:57:37.218Z,18.83
2022-11-21T15:00:06.078Z,17.87
2022-11-21T15:02:33.195Z,16.53
2022-11-21T15:05:02.820Z,19.17
2022-11-21T15:07:45.221Z,17.53
2022-11-21T15:13:13.754Z,18.60
2022-11-21T15:15:44.307Z,19.07
2022-11-21T15:18:27.902Z,17.97
2022-11-21T15:20:57.134Z,18.20
2022-11-21T15:23:33.650Z,17.83
2022-11-21T15:26:01.601Z,19.80
2022-11-21T15:28:29.476Z,18.40
2022-11-21T15:31:34.564Z,17.17
2022-11-21T15:37:03.557Z,22.67
2022-11-21T15:39:30.203Z,22.07
2022-11-21T15:42:34.285Z,21.50
2022-11-21T15:45:03.292Z,19.37
2022-11-21T15:47:29.803Z,19.10
2022-11-21T15:49:56.245Z,20.57
2022-11-21T15:52:23.281Z,20.50
2022-11-21T15:54:50.079Z,19.43
2022-11-21T15:57:14.857Z,17.00
2022-11-21T15:57:21.485Z,18.80
2022-11-21T15:59:49.597Z,18.40
2022-11-21T16:02:16.324Z,20.80
2022-11-21T16:04:42.848Z,19.20
2022-11-21T16:07:12.185Z,17.70
2022-11-21T16:09:39.332Z,19.33
2022-11-21T16:12:06.366Z,17.17
2022-11-21T16:14:32.781Z,18.03
2022-11-21T16:16:59.265Z,17.60
2022-11-21T16:19:25.964Z,17.00
2022-11-21T16:21:53.691Z,16.90
2022-11-21T16:24:20.499Z,17.30
2022-11-21T16:26:47.165Z,13.20
2022-11-21T16:29:14.113Z,13.03
2022-11-21T16:31:40.749Z,12.37
2022-11-21T16:34:07.198Z,12.83
2022-11-21T16:36:33.746Z,13.27
2022-11-21T16:39:07.772Z,10.73
2022-11-21T16:41:36.875Z,11.07
2022-11-21T16:44:03.471Z,13.03
2022-11-21T16:46:30.419Z,11.90
2022-11-21T16:49:01.505Z,11.47
2022-11-21T16:51:28.522Z,10.43
2022-11-21T16:53:56.995Z,9.90
2022-11-21T16:56:23.863Z,10.43
2022-11-21T16:58:50.468Z,9.97
2022-11-21T17:01:25.118Z,9.33
2022-11-21T17:03:52.369Z,8.73
2022-11-21T17:06:24.557Z,8.17
2022-11-21T17:08:51.157Z,8.60
2022-11-21T17:11:29.545Z,7.93
2022-11-21T17:13:58.410Z,8.77
2022-11-21T17:16:24.959Z,9.27
2022-11-21T17:18:56.421Z,36.40
2022-11-21T17:21:23.523Z,12.80
2022-11-21T17:23:50.450Z,12.50
2022-11-21T17:26:19.089Z,14.77
2022-11-21T17:28:54.153Z,13.50
2022-11-21T17:31:21.220Z,11.40
2022-11-21T17:33:51.658Z,13.30
2022-11-21T17:36:22.362Z,12.17
2022-11-21T17:38:49.294Z,12.17
2022-11-21T17:41:17.586Z,10.77
2022-11-21T17:43:44.639Z,14.37
2022-11-21T17:46:17.044Z,13.60
2022-11-21T17:48:47.349Z,14.80
2022-11-21T17:51:18.820Z,12.70
2022-11-21T17:53:47.169Z,13.97
2022-11-21T17:56:16.399Z,12.83
2022-11-21T17:58:45.112Z,13.23
2022-11-21T18:01:18.755Z,13.10
2022-11-21T18:04:03.141Z,13.83
2022-11-21T18:06:34.377Z,12.70
2022-11-21T18:09:00.875Z,13.13
2022-11-21T18:11:32.060Z,13.90
2022-11-21T18:14:03.791Z,13.83
2022-11-21T18:16:31.771Z,14.27
2022-11-21T18:18:59.047Z,14.10
2022-11-21T18:21:28.436Z,16.20
2022-11-21T18:23:56.496Z,17.50
2022-11-21T18:26:24.035Z,22.33
2022-11-21T18:29:13.093Z,18.10
2022-11-21T18:31:38.952Z,15.30
2022-11-21T18:34:06.561Z,17.97
2022-11-21T18:36:33.261Z,31.07
2022-11-21T18:39:05.939Z,18.40
2022-11-21T18:41:36.368Z,16.10
2022-11-21T18:44:06.773Z,14.10
2022-11-21T18:46:34.882Z,13.70
2022-11-21T18:49:05.158Z,13.63
2022-11-21T18:51:33.880Z,12.00
2022-11-21T18:54:07.124Z,11.30
2022-11-21T18:56:34.806Z,11.60
2022-11-21T18:59:03.228Z,10.80
2022-11-21T19:01:33.476Z,9.63
2022-11-21T19:04:00.049Z,9.57
2022-11-21T19:06:28.827Z,9.83
2022-11-21T19:08:57.049Z,11.90
2022-11-21T19:11:25.497Z,14.20
2022-11-21T19:13:53.057Z,14.73
2022-11-21T19:16:22.065Z,26.93
2022-11-21T19:19:11.697Z,16.17
2022-11-21T19:21:38.696Z,13.90
2022-11-21T19:24:09.350Z,11.73
2022-11-21T19:26:35.896Z,12.43
2022-11-21T19:29:02.398Z,13.40
2022-11-21T19:31:28.894Z,12.10
2022-11-21T19:33:55.381Z,13.80
2022-11-21T19:36:23.673Z,13.33
2022-11-21T19:38:51.539Z,12.50
2022-11-21T19:41:20.839Z,14.40
2022-11-21T19:43:58.770Z,11.43
2022-11-21T19:46:43.543Z,10.33
2022-11-21T19:49:11.298Z,11.77
2022-11-21T19:51:40.468Z,10.07
2022-11-21T19:54:08.166Z,6.00
2022-11-21T19:56:35.448Z,9.50
2022-11-21T19:59:05.565Z,6.50
2022-11-21T20:01:33.566Z,7.30
2022-11-21T20:04:02.415Z,7.57
2022-11-21T20:06:34.361Z,9.03
2022-11-21T20:09:04.098Z,7.87
2022-11-21T20:11:31.635Z,8.43
2022-11-21T20:13:58.691Z,8.10
2022-11-21T20:16:39.886Z,7.87
2022-11-21T20:19:09.795Z,9.40
2022-11-21T20:21:37.373Z,13.23
2022-11-21T20:24:05.026Z,12.70
2022-11-21T20:26:32.521Z,12.00
2022-11-21T20:28:59.345Z,12.30
2022-11-21T20:31:28.564Z,9.70
2022-11-21T20:33:58.153Z,10.20
2022-11-21T20:36:26.039Z,9.73
2022-11-21T20:38:56.934Z,10.43
2022-11-21T20:41:25.713Z,9.53
2022-11-21T20:44:44.699Z,7.07
2022-11-21T20:46:43.105Z,6.80
2022-11-21T20:49:09.939Z,10.93
2022-11-21T20:54:23.260Z,12.50
2022-11-21T20:56:49.831Z,8.30
2022-11-21T20:59:16.357Z,6.10
2022-11-21T21:01:43.164Z,11.33
2022-11-21T21:04:10.004Z,5.23
2022-11-21T21:06:37.528Z,6.20
2022-11-21T21:09:04.254Z,5.20
2022-11-21T21:11:52.911Z,4.90
2022-11-21T21:14:17.333Z,4.87
2022-11-21T21:16:43.825Z,5.10
2022-11-21T21:19:10.340Z,4.47
2022-11-21T21:21:37.050Z,4.67
2022-11-21T21:24:06.091Z,5.30
2022-11-21T21:26:41.567Z,6.20
2022-11-21T21:29:10.743Z,4.77
2022-11-21T21:31:37.255Z,5.00
2022-11-21T21:34:03.797Z,5.13
2022-11-21T21:36:32.027Z,4.77
2022-11-21T21:38:59.583Z,4.50
2022-11-21T21:41:28.965Z,4.57
2022-11-21T21:43:57.084Z,4.93
2022-11-21T21:46:27.629Z,4.57
2022-11-21T21:48:56.184Z,4.50
2022-11-21T21:51:30.470Z,5.10
2022-11-21T21:53:58.419Z,4.70
2022-11-21T21:56:27.440Z,4.43
2022-11-21T21:58:54.006Z,4.10
2022-11-21T22:01:27.472Z,4.10
2022-11-21T22:03:56.076Z,4.60
2022-11-21T22:06:22.623Z,4.70
2022-11-21T22:08:50.008Z,4.37
2022-11-21T22:11:18.939Z,4.90
2022-11-21T22:13:47.908Z,4.70
2022-11-21T22:16:14.522Z,4.50
2022-11-21T22:18:41.631Z,4.37
2022-11-21T22:21:22.013Z,4.90
2022-11-21T22:24:17.722Z,4.90
2022-11-21T22:26:35.041Z,4.70
2022-11-21T22:29:01.594Z,6.13
2022-11-21T22:31:30.687Z,6.87
2022-11-21T22:33:57.207Z,5.83
2022-11-21T22:36:23.886Z,6.07
2022-11-21T22:38:53.763Z,5.83
2022-11-21T22:41:25.106Z,5.43
2022-11-21T22:43:59.254Z,5.47
2022-11-21T22:46:27.241Z,4.93
2022-11-21T22:48:54.374Z,3.10
2022-11-21T22:51:23.684Z,3.20
2022-11-21T22:53:50.581Z,2.73
2022-11-21T22:56:19.053Z,2.10
2022-11-21T22:58:46.145Z,2.60
2022-11-21T23:01:16.732Z,2.77
2022-11-21T23:03:43.867Z,2.50
2022-11-21T23:06:18.482Z,2.10
2022-11-21T23:08:45.448Z,2.00
2022-11-21T23:11:14.856Z,2.60
2022-11-21T23:13:43.816Z,3.30
2022-11-21T23:16:11.111Z,2.30
2022-11-21T23:18:37.956Z,2.70
2022-11-21T23:21:05.004Z,2.50
2022-11-21T23:23:32.270Z,2.30
2022-11-21T23:25:59.192Z,1.73
2022-11-21T23:28:25.960Z,2.40
2022-11-21T23:30:52.440Z,2.27
2022-11-21T23:33:19.281Z,2.00
2022-11-21T23:35:46.289Z,1.93
2022-11-21T23:38:14.576Z,2.00
2022-11-21T23:40:41.257Z,1.80
2022-11-21T23:43:08.186Z,2.00
2022-11-21T23:45:34.995Z,1.87
2022-11-21T23:48:01.628Z,1.60
2022-11-21T23:50:28.195Z,1.90
2022-11-21T23:52:54.876Z,1.53
2022-11-21T23:55:21.348Z,2.33
2022-11-21T23:57:48.526Z,2.73
